createdAt,value
2023-04-25T00:01:37.191Z,52273.28
2023-04-25T00:04:03.973Z,52291.59
2023-04-25T00:06:31.031Z,52222.41
2023-04-25T00:08:57.653Z,52267.19
2023-04-25T00:11:24.498Z,52309.91
2023-04-25T00:13:55.298Z,52293.63
2023-04-25T00:16:21.782Z,52301.78
2023-04-25T00:18:52.256Z,52311.94
2023-04-25T00:21:20.765Z,52289.56
2023-04-25T00:23:48.086Z,52326.19
2023-04-25T00:26:14.824Z,52277.34
2023-04-25T00:28:41.829Z,52297.72
2023-04-25T00:31:08.364Z,52324.16
2023-04-25T00:33:34.954Z,52281.44
2023-04-25T00:36:01.528Z,52305.84
2023-04-25T00:38:28.063Z,52305.84
2023-04-25T00:40:56.635Z,52328.22
2023-04-25T00:43:23.044Z,52309.91
2023-04-25T00:45:51.043Z,52291.59
2023-04-25T00:48:18.213Z,52324.16
2023-04-25T00:50:52.124Z,52269.22
2023-04-25T00:53:18.581Z,52285.50
2023-04-25T00:55:45.026Z,52301.78
2023-04-25T00:58:11.471Z,52309.91
2023-04-25T01:00:38.133Z,52316.03
2023-04-25T01:03:04.943Z,52360.78
2023-04-25T01:05:31.577Z,52297.72
2023-04-25T01:07:58.089Z,52328.22
2023-04-25T01:10:24.651Z,52340.44
2023-04-25T01:12:51.195Z,52338.41
2023-04-25T01:15:17.969Z,52350.59
2023-04-25T01:17:45.282Z,52389.28
2023-04-25T01:20:12.727Z,52356.72
2023-04-25T01:22:39.189Z,52379.09
2023-04-25T01:25:06.100Z,52348.56
2023-04-25T01:27:32.613Z,52332.28
2023-04-25T01:30:00.423Z,52307.88
2023-04-25T01:32:27.664Z,52379.09
2023-04-25T01:34:54.085Z,52358.75
2023-04-25T01:37:21.076Z,52316.03
2023-04-25T01:39:47.571Z,52313.97
2023-04-25T01:42:14.126Z,52346.53
2023-04-25T01:44:40.722Z,52322.13
2023-04-25T01:47:07.307Z,52318.06
2023-04-25T01:49:33.790Z,52322.13
2023-04-25T01:52:00.535Z,52322.13
2023-04-25T01:54:27.021Z,52318.06
2023-04-25T01:56:53.465Z,52322.13
2023-04-25T01:59:21.421Z,52318.06
2023-04-25T02:01:47.887Z,52350.59
2023-04-25T02:04:14.601Z,52326.19
2023-04-25T02:06:41.259Z,52318.06
2023-04-25T02:09:07.684Z,52320.09
2023-04-25T02:11:34.086Z,52344.50
2023-04-25T02:14:00.542Z,52316.03
2023-04-25T02:16:27.022Z,52313.97
2023-04-25T02:18:54.160Z,52334.34
2023-04-25T02:21:20.550Z,52338.41
2023-04-25T02:23:50.018Z,52344.50
2023-04-25T02:26:16.686Z,52289.56
2023-04-25T02:28:43.244Z,52342.47
2023-04-25T02:31:09.998Z,52320.09
2023-04-25T02:33:36.445Z,52342.47
2023-04-25T02:36:02.909Z,52350.59
2023-04-25T02:38:29.359Z,52293.63
2023-04-25T02:40:55.753Z,52366.88
2023-04-25T02:43:23.149Z,52346.53
2023-04-25T02:45:49.592Z,52326.19
2023-04-25T02:48:16.081Z,52334.34
2023-04-25T02:50:42.625Z,52348.56
2023-04-25T02:53:09.222Z,52342.47
2023-04-25T02:55:35.845Z,52354.69
2023-04-25T02:58:02.294Z,52332.28
2023-04-25T03:00:29.023Z,52330.25
2023-04-25T03:02:56.711Z,52309.91
2023-04-25T03:05:23.222Z,52299.75
2023-04-25T03:07:49.637Z,52375.03
2023-04-25T03:10:16.122Z,52322.13
2023-04-25T03:12:42.556Z,52330.25
2023-04-25T03:15:09.317Z,52305.84
2023-04-25T03:17:35.905Z,52330.25
2023-04-25T03:20:02.656Z,52358.75
2023-04-25T03:22:29.203Z,52391.31
2023-04-25T03:24:55.592Z,52259.03
2023-04-25T03:27:22.028Z,52352.66
2023-04-25T03:29:48.422Z,52305.84
2023-04-25T03:32:14.904Z,52373.00
2023-04-25T03:34:41.856Z,52366.88
2023-04-25T03:37:08.281Z,52350.59
2023-04-25T03:39:34.762Z,52366.88
2023-04-25T03:42:02.020Z,52332.28
2023-04-25T03:44:28.472Z,52360.78
2023-04-25T03:46:54.901Z,52338.41
2023-04-25T03:49:21.675Z,52356.72
2023-04-25T03:51:48.062Z,52346.53
2023-04-25T03:54:14.516Z,52348.56
2023-04-25T03:56:40.976Z,52330.25
2023-04-25T03:59:07.448Z,52350.59
2023-04-25T04:01:33.856Z,52342.47
2023-04-25T04:04:00.533Z,52342.47
2023-04-25T04:06:27.613Z,52334.34
2023-04-25T04:08:54.269Z,52387.22
2023-04-25T04:11:21.630Z,52366.88
2023-04-25T04:13:48.302Z,52344.50
2023-04-25T04:16:14.931Z,52336.38
2023-04-25T04:18:41.575Z,52362.81
2023-04-25T04:21:08.052Z,52344.50
2023-04-25T04:23:34.688Z,52332.28
2023-04-25T04:26:01.873Z,52287.53
2023-04-25T04:28:29.008Z,52375.03
2023-04-25T04:30:56.586Z,52354.69
2023-04-25T04:33:24.506Z,52360.78
2023-04-25T04:35:53.358Z,52350.59
2023-04-25T04:38:20.750Z,52338.41
2023-04-25T04:40:48.702Z,52330.25
2023-04-25T04:43:15.878Z,52295.66
2023-04-25T04:45:42.288Z,52368.94
2023-04-25T04:48:09.686Z,52322.13
2023-04-25T04:50:36.667Z,52362.81
2023-04-25T04:53:03.152Z,52360.78
2023-04-25T04:55:29.581Z,52322.13
2023-04-25T04:57:56.467Z,52338.41
2023-04-25T05:00:22.914Z,52346.53
2023-04-25T05:02:49.497Z,52352.66
2023-04-25T05:05:15.958Z,52330.25
2023-04-25T05:07:42.384Z,52305.84
2023-04-25T05:10:09.325Z,52320.09
2023-04-25T05:12:37.130Z,52338.41
2023-04-25T05:15:03.909Z,52297.72
2023-04-25T05:17:30.604Z,52295.66
2023-04-25T05:19:57.081Z,52316.03
2023-04-25T05:22:23.914Z,52324.16
2023-04-25T05:24:50.475Z,52281.44
2023-04-25T05:27:18.645Z,52277.34
2023-04-25T05:29:45.712Z,52269.22
2023-04-25T05:32:12.314Z,52248.88
2023-04-25T05:34:38.913Z,52252.94
2023-04-25T05:37:05.369Z,52224.47
2023-04-25T05:39:31.766Z,52250.91
2023-04-25T05:41:58.209Z,52179.69
2023-04-25T05:44:24.679Z,52234.63
2023-04-25T05:46:51.107Z,52171.56
2023-04-25T05:49:19.491Z,52175.63
2023-04-25T05:51:46.227Z,52163.41
2023-04-25T05:54:12.645Z,52183.75
2023-04-25T05:56:39.061Z,52200.03
2023-04-25T05:59:06.024Z,52208.19
2023-04-25T06:01:32.393Z,52206.16
2023-04-25T06:03:59.153Z,52206.16
2023-04-25T06:06:27.844Z,52171.56
2023-04-25T06:08:54.453Z,52147.13
2023-04-25T06:11:21.236Z,52145.09
2023-04-25T06:13:47.667Z,52155.28
2023-04-25T06:16:14.214Z,52149.19
2023-04-25T06:18:40.638Z,52165.44
2023-04-25T06:21:07.111Z,52171.56
2023-04-25T06:23:33.512Z,52173.59
2023-04-25T06:25:59.917Z,52155.28
2023-04-25T06:28:26.641Z,52163.41
2023-04-25T06:30:53.184Z,52191.91
2023-04-25T06:33:19.749Z,52173.59
2023-04-25T06:35:46.663Z,52185.81
2023-04-25T06:38:13.090Z,52195.97
2023-04-25T06:40:39.530Z,52214.28
2023-04-25T06:43:05.959Z,52204.13
2023-04-25T06:45:32.442Z,52216.31
2023-04-25T06:47:58.870Z,52220.38
2023-04-25T06:50:25.600Z,52242.78
2023-04-25T06:52:52.031Z,52228.53
2023-04-25T06:55:18.631Z,52246.84
2023-04-25T06:57:45.016Z,52267.19
2023-04-25T07:00:12.223Z,52240.75
2023-04-25T07:02:38.947Z,52179.69
2023-04-25T07:05:06.237Z,52200.03
2023-04-25T07:07:32.685Z,52195.97
2023-04-25T07:09:59.158Z,52171.56
2023-04-25T07:12:25.605Z,52202.06
2023-04-25T07:14:52.070Z,52189.88
2023-04-25T07:17:18.603Z,52167.50
2023-04-25T07:19:45.095Z,52187.84
2023-04-25T07:22:11.499Z,52165.44
2023-04-25T07:24:37.961Z,52193.94
2023-04-25T07:27:04.725Z,52139.00
2023-04-25T07:29:31.924Z,52143.06
2023-04-25T07:31:58.615Z,52179.69
2023-04-25T07:34:25.112Z,52173.59
2023-04-25T07:36:51.673Z,52208.19
2023-04-25T07:39:18.115Z,52167.50
2023-04-25T07:41:44.547Z,52155.28
2023-04-25T07:44:10.984Z,52191.91
2023-04-25T07:46:37.382Z,52181.72
2023-04-25T07:49:03.820Z,52198.00
2023-04-25T07:51:30.253Z,52153.25
2023-04-25T07:53:56.679Z,52169.53
2023-04-25T07:56:23.160Z,52165.44
2023-04-25T07:58:49.787Z,52141.03
2023-04-25T08:01:16.544Z,52169.53
2023-04-25T08:03:43.231Z,52175.63
2023-04-25T08:06:10.338Z,52165.44
2023-04-25T08:08:36.822Z,52165.44
2023-04-25T08:11:03.297Z,52185.81
2023-04-25T08:13:29.716Z,52167.50
2023-04-25T08:15:56.191Z,52165.44
2023-04-25T08:18:22.773Z,52155.28
2023-04-25T08:20:49.363Z,52181.72
2023-04-25T08:23:15.913Z,52187.84
2023-04-25T08:25:42.328Z,52185.81
2023-04-25T08:28:08.913Z,52232.59
2023-04-25T08:30:35.448Z,52208.19
2023-04-25T08:33:01.911Z,52193.94
2023-04-25T08:35:28.427Z,52171.56
2023-04-25T08:37:54.861Z,52202.06
2023-04-25T08:40:27.196Z,52195.97
2023-04-25T08:42:54.595Z,52198.00
2023-04-25T08:45:21.482Z,52232.59
2023-04-25T08:47:49.834Z,52222.41
2023-04-25T08:50:17.851Z,52195.97
2023-04-25T08:52:46.428Z,52198.00
2023-04-25T08:55:14.334Z,52191.91
2023-04-25T08:57:43.877Z,52195.97
2023-04-25T09:00:13.355Z,52163.41
2023-04-25T09:02:44.725Z,52191.91
2023-04-25T09:05:17.194Z,52224.47
2023-04-25T09:07:48.536Z,52218.34
2023-04-25T09:10:19.826Z,52208.19
2023-04-25T09:13:03.153Z,52181.72
2023-04-25T09:15:29.746Z,52195.97
2023-04-25T09:17:57.828Z,52222.41
2023-04-25T09:20:25.722Z,52208.19
2023-04-25T09:23:06.365Z,52210.22
2023-04-25T09:25:39.786Z,52236.66
2023-04-25T09:28:07.489Z,52214.28
2023-04-25T09:30:36.105Z,52244.81
2023-04-25T09:33:13.641Z,52226.50
2023-04-25T09:35:42.131Z,52222.41
2023-04-25T09:38:13.381Z,52218.34
2023-04-25T09:40:41.842Z,52214.28
2023-04-25T09:43:24.732Z,52206.16
2023-04-25T09:45:54.449Z,52185.81
2023-04-25T09:48:22.922Z,52212.25
2023-04-25T09:51:08.714Z,52185.81
2023-04-25T09:53:43.165Z,52204.13
2023-04-25T09:56:11.880Z,52220.38
2023-04-25T09:58:40.842Z,52185.81
2023-04-25T10:01:09.818Z,52216.31
2023-04-25T10:03:40.637Z,52216.31
2023-04-25T10:06:15.373Z,52177.66
2023-04-25T10:08:42.971Z,52200.03
2023-04-25T10:11:10.226Z,52181.72
2023-04-25T10:13:37.252Z,52204.13
2023-04-25T10:16:04.918Z,52244.81
2023-04-25T10:18:32.875Z,52167.50
2023-04-25T10:21:01.733Z,52206.16
2023-04-25T10:23:30.327Z,52171.56
2023-04-25T10:25:57.971Z,52187.84
2023-04-25T10:28:24.385Z,52157.31
2023-04-25T10:31:04.470Z,52165.44
2023-04-25T10:33:36.529Z,52200.03
2023-04-25T10:36:14.727Z,52189.88
2023-04-25T10:38:43.362Z,52200.03
2023-04-25T10:41:11.198Z,52202.06
2023-04-25T10:43:44.563Z,52206.16
2023-04-25T10:46:20.383Z,52218.34
2023-04-25T10:48:52.512Z,52187.84
2023-04-25T10:51:24.338Z,52202.06
2023-04-25T10:53:57.221Z,52210.22
2023-04-25T10:56:26.933Z,52222.41
2023-04-25T10:59:05.126Z,52222.41
2023-04-25T11:01:37.787Z,52236.66
2023-04-25T11:04:04.375Z,52254.97
2023-04-25T11:07:04.494Z,52236.66
2023-04-25T11:09:34.430Z,52240.75
2023-04-25T11:12:01.354Z,52263.13
2023-04-25T11:14:28.008Z,52254.97
2023-04-25T11:17:00.735Z,52244.81
2023-04-25T11:19:29.058Z,52279.41
2023-04-25T11:21:59.733Z,52287.53
2023-04-25T11:24:35.210Z,52267.19
2023-04-25T11:27:05.382Z,52307.88
2023-04-25T11:29:33.207Z,52259.03
2023-04-25T11:32:01.174Z,52265.16
2023-04-25T11:34:31.555Z,52271.25
2023-04-25T11:36:58.255Z,52224.47
2023-04-25T11:39:25.844Z,52279.41
2023-04-25T11:41:53.057Z,52210.22
2023-04-25T11:44:20.978Z,52238.69
2023-04-25T11:46:48.356Z,52254.97
2023-04-25T11:49:18.492Z,52214.28
2023-04-25T11:51:47.934Z,52234.63
2023-04-25T11:54:15.170Z,52238.69
2023-04-25T11:56:45.815Z,52206.16
2023-04-25T11:59:13.136Z,52248.88
2023-04-25T12:01:48.525Z,52183.75
2023-04-25T12:04:17.550Z,52185.81
2023-04-25T12:06:48.566Z,52173.59
2023-04-25T12:09:16.852Z,52224.47
2023-04-25T12:11:53.962Z,52179.69
2023-04-25T12:14:27.971Z,52185.81
2023-04-25T12:16:58.828Z,52208.19
2023-04-25T12:19:26.864Z,52232.59
2023-04-25T12:21:58.569Z,52244.81
2023-04-25T12:24:28.594Z,52214.28
2023-04-25T12:27:02.791Z,52206.16
2023-04-25T12:29:34.746Z,52224.47
2023-04-25T12:32:05.461Z,52232.59
2023-04-25T12:34:33.212Z,52254.97
2023-04-25T12:36:59.731Z,52216.31
2023-04-25T12:39:26.795Z,52216.31
2023-04-25T12:41:54.944Z,52198.00
2023-04-25T12:44:21.807Z,52183.75
2023-04-25T12:46:49.085Z,52183.75
2023-04-25T12:49:19.126Z,52163.41
2023-04-25T12:51:46.071Z,52198.00
2023-04-25T12:54:12.712Z,52240.75
2023-04-25T12:56:39.418Z,52175.63
2023-04-25T12:59:06.397Z,52240.75
2023-04-25T13:01:34.706Z,52210.22
2023-04-25T13:04:03.100Z,52224.47
2023-04-25T13:06:31.368Z,52246.84
2023-04-25T13:08:57.828Z,52206.16
2023-04-25T13:11:24.543Z,52238.69
2023-04-25T13:13:51.119Z,52195.97
2023-04-25T13:16:18.329Z,52210.22
2023-04-25T13:18:44.767Z,52220.38
2023-04-25T13:21:12.430Z,52204.13
2023-04-25T13:23:38.993Z,52261.09
2023-04-25T13:26:05.620Z,52232.59
2023-04-25T13:28:32.061Z,52254.97
2023-04-25T13:30:59.053Z,52202.06
2023-04-25T13:33:25.378Z,52220.38
2023-04-25T13:35:54.948Z,52224.47
2023-04-25T13:38:26.672Z,52246.84
2023-04-25T13:40:53.784Z,52250.91
2023-04-25T13:43:21.790Z,52240.75
2023-04-25T13:45:49.443Z,52212.25
2023-04-25T13:48:16.474Z,52189.88
2023-04-25T13:50:42.919Z,52191.91
2023-04-25T13:53:09.540Z,52218.34
2023-04-25T13:55:37.750Z,52232.59
2023-04-25T13:58:11.032Z,52226.50
2023-04-25T14:00:40.273Z,52210.22
2023-04-25T14:03:11.040Z,52240.75
2023-04-25T14:05:39.245Z,52220.38
2023-04-25T14:08:10.532Z,52193.94
2023-04-25T14:10:37.737Z,52208.19
2023-04-25T14:13:06.179Z,52214.28
2023-04-25T14:15:33.388Z,52173.59
2023-04-25T14:18:01.391Z,52216.31
2023-04-25T14:20:28.034Z,52228.53
2023-04-25T14:22:55.595Z,52181.72
2023-04-25T14:25:22.427Z,52202.06
2023-04-25T14:27:51.101Z,52204.13
2023-04-25T14:30:22.982Z,52230.56
2023-04-25T14:32:53.281Z,52208.19
2023-04-25T14:35:19.739Z,52171.56
2023-04-25T14:37:46.618Z,52216.31
2023-04-25T14:40:14.246Z,52208.19
2023-04-25T14:42:41.280Z,52202.06
2023-04-25T14:45:09.480Z,52169.53
2023-04-25T14:47:37.808Z,52187.84
2023-04-25T14:50:05.784Z,52202.06
2023-04-25T14:52:32.310Z,52218.34
2023-04-25T14:55:00.987Z,52208.19
2023-04-25T14:57:27.480Z,52204.13
2023-04-25T14:59:54.021Z,52216.31
2023-04-25T15:02:20.529Z,52171.56
2023-04-25T15:04:47.406Z,52206.16
2023-04-25T15:07:14.774Z,52159.34
2023-04-25T15:09:42.191Z,52204.13
2023-04-25T15:12:08.625Z,52216.31
2023-04-25T15:14:35.057Z,52222.41
2023-04-25T15:17:01.778Z,52212.25
2023-04-25T15:19:28.282Z,52179.69
2023-04-25T15:21:55.015Z,52193.94
2023-04-25T15:24:22.434Z,52193.94
2023-04-25T15:26:48.849Z,52206.16
2023-04-25T15:29:15.470Z,52214.28
2023-04-25T15:31:41.948Z,52232.59
2023-04-25T15:34:08.401Z,52191.91
2023-04-25T15:36:34.839Z,52222.41
2023-04-25T15:39:01.389Z,52222.41
2023-04-25T15:41:27.851Z,52214.28
2023-04-25T15:43:55.011Z,52222.41
2023-04-25T15:46:24.125Z,52234.63
2023-04-25T15:48:51.010Z,52222.41
2023-04-25T15:51:17.581Z,52224.47
2023-04-25T15:53:44.063Z,52248.88
2023-04-25T15:56:11.161Z,52216.31
2023-04-25T15:58:38.030Z,52234.63
2023-04-25T16:01:05.155Z,52252.94
2023-04-25T16:03:35.531Z,52198.00
2023-04-25T16:06:03.072Z,52220.38
2023-04-25T16:08:29.858Z,52232.59
2023-04-25T16:10:57.372Z,52200.03
2023-04-25T16:13:23.818Z,52218.34
2023-04-25T16:15:50.352Z,52226.50
2023-04-25T16:18:16.942Z,52195.97
2023-04-25T16:20:43.522Z,52181.72
2023-04-25T16:23:09.956Z,52224.47
2023-04-25T16:25:36.393Z,52157.31
2023-04-25T16:28:02.835Z,52210.22
2023-04-25T16:30:29.286Z,52236.66
2023-04-25T16:32:57.496Z,52185.81
2023-04-25T16:35:24.581Z,52204.13
2023-04-25T16:37:51.142Z,52244.81
2023-04-25T16:40:17.708Z,52175.63
2023-04-25T16:42:44.121Z,52195.97
2023-04-25T16:45:11.054Z,52240.75
2023-04-25T16:47:37.412Z,52218.34
2023-04-25T16:50:04.344Z,52216.31
2023-04-25T16:52:31.613Z,52212.25
2023-04-25T16:54:58.045Z,52242.78
2023-04-25T16:57:24.463Z,52206.16
2023-04-25T16:59:51.013Z,52228.53
2023-04-25T17:02:17.603Z,52222.41
2023-04-25T17:04:44.231Z,52224.47
2023-04-25T17:07:10.936Z,52228.53
2023-04-25T17:09:37.435Z,52250.91
2023-04-25T17:12:04.479Z,52246.84
2023-04-25T17:14:33.019Z,52261.09
2023-04-25T17:16:59.510Z,52236.66
2023-04-25T17:19:26.250Z,52248.88
2023-04-25T17:21:52.906Z,52200.03
2023-04-25T17:24:21.790Z,52244.81
2023-04-25T17:26:49.016Z,52175.63
2023-04-25T17:29:15.845Z,52240.75
2023-04-25T17:31:44.318Z,52232.59
2023-04-25T17:34:12.203Z,52200.03
2023-04-25T17:36:38.603Z,52212.25
2023-04-25T17:39:07.435Z,52228.53
2023-04-25T17:41:33.849Z,52228.53
2023-04-25T17:44:00.513Z,52228.53
2023-04-25T17:46:27.734Z,52242.78
2023-04-25T17:48:54.811Z,52246.84
2023-04-25T17:51:21.426Z,52226.50
2023-04-25T17:53:47.915Z,52267.19
2023-04-25T17:56:25.807Z,52238.69
2023-04-25T17:58:53.631Z,52252.94
2023-04-25T18:01:20.634Z,52244.81
2023-04-25T18:03:49.275Z,52244.81
2023-04-25T18:06:16.798Z,52259.03
2023-04-25T18:08:44.661Z,52236.66
2023-04-25T18:11:11.957Z,52269.22
2023-04-25T18:13:39.296Z,52289.56
2023-04-25T18:16:06.203Z,52269.22
2023-04-25T18:18:36.630Z,52277.34
2023-04-25T18:21:05.324Z,52285.50
2023-04-25T18:23:34.202Z,52297.72
2023-04-25T18:26:01.502Z,52244.81
2023-04-25T18:28:28.087Z,52271.25
2023-04-25T18:30:54.512Z,52291.59
2023-04-25T18:33:22.406Z,52273.28
2023-04-25T18:35:58.775Z,52248.88
2023-04-25T18:41:00.114Z,52252.94
2023-04-25T18:43:39.914Z,52287.53
2023-04-25T18:46:06.337Z,52283.47
2023-04-25T18:48:33.095Z,52257.00
2023-04-25T18:50:59.597Z,52242.78
2023-04-25T18:53:25.988Z,52283.47
2023-04-25T18:55:52.464Z,52277.34
2023-04-25T18:58:18.873Z,52293.63
2023-04-25T19:00:45.350Z,52283.47
2023-04-25T19:03:14.015Z,52265.16
2023-04-25T19:05:40.837Z,52283.47
2023-04-25T19:08:07.942Z,52309.91
2023-04-25T19:10:34.347Z,52303.81
2023-04-25T19:13:00.780Z,52313.97
2023-04-25T19:15:28.402Z,52336.38
2023-04-25T19:17:54.983Z,52340.44
2023-04-25T19:20:21.573Z,52313.97
2023-04-25T19:22:48.463Z,52299.75
2023-04-25T19:25:14.981Z,52295.66
2023-04-25T19:27:41.681Z,52338.41
2023-04-25T19:30:08.930Z,52350.59
2023-04-25T19:32:36.001Z,52334.34
2023-04-25T19:35:03.988Z,52326.19
2023-04-25T19:37:30.672Z,52293.63
2023-04-25T19:39:57.320Z,52285.50
2023-04-25T19:42:23.802Z,52320.09
2023-04-25T19:44:53.230Z,52330.25
2023-04-25T19:47:19.686Z,52301.78
2023-04-25T19:49:46.185Z,52303.81
2023-04-25T19:52:17.235Z,52320.09
2023-04-25T19:54:45.503Z,52309.91
2023-04-25T19:57:12.687Z,52330.25
2023-04-25T19:59:40.021Z,52322.13
2023-04-25T20:02:08.995Z,52340.44
2023-04-25T20:04:35.665Z,52344.50
2023-04-25T20:07:02.198Z,52362.81
2023-04-25T20:09:28.926Z,52346.53
2023-04-25T20:11:55.413Z,52340.44
2023-04-25T20:14:21.923Z,52346.53
2023-04-25T20:16:48.364Z,52356.72
2023-04-25T20:19:14.860Z,52377.06
2023-04-25T20:21:41.363Z,52338.41
2023-04-25T20:24:08.632Z,52316.03
2023-04-25T20:26:35.638Z,52373.00
2023-04-25T20:29:02.013Z,52377.06
2023-04-25T20:31:30.115Z,52334.34
2023-04-25T20:33:56.654Z,52336.38
2023-04-25T20:36:23.074Z,52324.16
2023-04-25T20:38:49.533Z,52366.88
2023-04-25T20:41:16.128Z,52377.06
2023-04-25T20:43:42.644Z,52344.50
2023-04-25T20:46:09.157Z,52373.00
2023-04-25T20:48:35.914Z,52360.78
2023-04-25T20:51:02.473Z,52336.38
2023-04-25T20:53:28.894Z,52307.88
2023-04-25T20:55:55.357Z,52350.59
2023-04-25T20:58:21.792Z,52385.19
2023-04-25T21:00:48.943Z,52354.69
2023-04-25T21:03:16.000Z,52354.69
2023-04-25T21:05:42.839Z,52350.59
2023-04-25T21:08:09.570Z,52385.19
2023-04-25T21:10:37.302Z,52358.75
2023-04-25T21:13:03.959Z,52350.59
2023-04-25T21:15:30.530Z,52383.16
2023-04-25T21:17:56.948Z,52338.41
2023-04-25T21:20:23.538Z,52383.16
2023-04-25T21:22:53.757Z,52360.78
2023-04-25T21:25:29.222Z,52354.69
2023-04-25T21:27:56.200Z,52389.28
2023-04-25T21:30:24.368Z,52346.53
2023-04-25T21:32:51.797Z,52305.84
2023-04-25T21:35:19.758Z,52383.16
2023-04-25T21:37:46.918Z,52352.66
2023-04-25T21:40:14.445Z,52352.66
2023-04-25T21:42:51.856Z,52373.00
2023-04-25T21:45:19.789Z,52354.69
2023-04-25T21:47:47.663Z,52377.06
2023-04-25T21:50:15.267Z,52324.16
2023-04-25T21:52:41.866Z,52362.81
2023-04-25T21:55:10.308Z,52360.78
2023-04-25T21:57:36.762Z,52362.81
2023-04-25T22:00:05.945Z,52393.34
2023-04-25T22:02:32.565Z,52368.94
2023-04-25T22:04:59.075Z,52344.50
2023-04-25T22:07:25.984Z,52356.72
2023-04-25T22:09:55.361Z,52346.53
2023-04-25T22:12:23.430Z,52381.13
2023-04-25T22:14:50.277Z,52362.81
2023-04-25T22:17:17.784Z,52379.09
2023-04-25T22:19:44.945Z,52340.44
2023-04-25T22:22:11.780Z,52348.56
2023-04-25T22:24:38.871Z,52354.69
2023-04-25T22:27:05.414Z,52324.16
2023-04-25T22:29:31.832Z,52324.16
2023-04-25T22:31:58.578Z,52338.41
2023-04-25T22:34:25.079Z,52377.06
2023-04-25T22:36:51.494Z,52370.97
2023-04-25T22:39:19.270Z,52330.25
2023-04-25T22:41:46.411Z,52336.38
2023-04-25T22:44:12.883Z,52352.66
2023-04-25T22:46:39.494Z,52330.25
2023-04-25T22:49:05.910Z,52342.47
2023-04-25T22:51:33.163Z,52305.84
2023-04-25T22:54:00.719Z,52356.72
2023-04-25T22:56:29.977Z,52360.78
2023-04-25T22:58:56.726Z,52350.59
2023-04-25T23:01:23.212Z,52354.69
2023-04-25T23:03:49.818Z,52383.16
2023-04-25T23:06:17.155Z,52358.75
2023-04-25T23:08:43.810Z,52354.69
2023-04-25T23:11:10.283Z,52366.88
2023-04-25T23:13:37.190Z,52342.47
2023-04-25T23:16:07.187Z,52364.84
2023-04-25T23:18:33.661Z,52340.44
2023-04-25T23:21:01.979Z,52373.00
2023-04-25T23:23:29.111Z,52356.72
2023-04-25T23:25:56.750Z,52354.69
2023-04-25T23:28:23.420Z,52364.84
2023-04-25T23:30:49.864Z,52350.59
2023-04-25T23:33:16.374Z,52397.41
2023-04-25T23:35:42.810Z,52328.22
2023-04-25T23:38:09.385Z,52373.00
2023-04-25T23:40:35.972Z,52387.22
2023-04-25T23:43:03.463Z,52360.78
2023-04-25T23:45:30.323Z,52377.06
2023-04-25T23:47:56.914Z,52336.38
2023-04-25T23:50:23.368Z,52411.66
2023-04-25T23:52:49.782Z,52350.59
2023-04-25T23:55:16.683Z,52373.00
2023-04-25T23:57:44.390Z,52344.50
